Time;durP1;ratioP1;P1;durP2;ratioP2;P2;SDS_P1;SDS_P2;PMS_P1;PMS_P2;Temp;Humidity;BMP_temperature;BMP_pressure;BME280_temperature;BME280_humidity;BME280_pressure;Samples;Min_cycle;Max_cycle;Signal;HPM_P1;HPM_P2
2022/02/17 00:00:54;;;;;;;14.77;13.88;;;;;;;9.18;100.00;97237.50;2082699;28;20198;-72
2022/02/17 00:01:58;;;;;;;15.65;14.50;;;;;;;9.26;100.00;97239.28;2081880;28;20230;-72
2022/02/17 00:03:02;;;;;;;15.13;14.32;;;;;;;9.22;100.00;97241.06;2082054;28;20279;-72
2022/02/17 00:04:05;;;;;;;15.07;14.18;;;;;;;9.26;100.00;97222.56;2081849;28;20231;-72
2022/02/17 00:05:08;;;;;;;14.95;14.10;;;;;;;9.25;100.00;97221.00;2082051;28;20184;-72
2022/02/17 00:06:11;;;;;;;15.40;14.50;;;;;;;9.21;100.00;97220.09;2082036;28;20191;-72
2022/02/17 00:07:16;;;;;;;15.23;14.32;;;;;;;9.24;100.00;97216.78;2082206;28;20238;-72
2022/02/17 00:08:20;;;;;;;15.20;14.30;;;;;;;9.20;100.00;97213.22;2074598;28;20211;-72
2022/02/17 00:09:22;;;;;;;15.02;14.13;;;;;;;9.21;100.00;97220.09;2081924;28;20188;-72
2022/02/17 00:10:26;;;;;;;15.07;14.18;;;;;;;9.25;100.00;97215.69;2082471;28;20203;-72
2022/02/17 00:11:30;;;;;;;15.20;14.30;;;;;;;9.25;100.00;97231.66;2081794;28;20218;-72
2022/02/17 00:12:32;;;;;;;15.63;14.63;;;;;;;9.30;100.00;97229.56;2081478;28;20207;-72
2022/02/17 00:13:38;;;;;;;15.57;14.68;;;;;;;9.20;100.00;97214.00;2082091;28;20188;-72
2022/02/17 00:14:39;;;;;;;15.60;14.70;;;;;;;9.18;100.00;97202.16;2082789;28;20195;-72
2022/02/17 00:15:46;;;;;;;15.32;14.43;;;;;;;9.16;100.00;97202.47;2082499;28;20188;-72
2022/02/17 00:16:48;;;;;;;15.48;14.57;;;;;;;9.15;100.00;97219.56;2082040;28;20737;-72
2022/02/17 00:17:52;;;;;;;15.25;14.35;;;;;;;9.18;100.00;97186.19;2082236;28;20187;-72
2022/02/17 00:18:55;;;;;;;15.60;14.70;;;;;;;9.11;100.00;97188.63;2082547;28;20708;-72
2022/02/17 00:20:02;;;;;;;15.55;14.65;;;;;;;9.09;100.00;97186.28;2090159;28;20183;-72
2022/02/17 00:21:05;;;;;;;15.48;14.57;;;;;;;9.14;100.00;97179.97;2088915;28;20195;-72
2022/02/17 00:22:11;;;;;;;15.48;14.43;;;;;;;9.13;100.00;97183.75;2082280;28;20740;-72
2022/02/17 00:23:18;;;;;;;16.30;15.20;;;;;;;9.15;100.00;97168.22;2082451;28;20758;-72
2022/02/17 00:24:21;;;;;;;16.30;15.30;;;;;;;9.18;100.00;97176.31;2081805;28;20241;-72
2022/02/17 00:25:25;;;;;;;15.98;15.07;;;;;;;9.14;100.00;97145.41;2081872;28;20196;-72
2022/02/17 00:26:27;;;;;;;15.93;14.93;;;;;;;9.16;100.00;97133.31;2081795;28;20196;-72
2022/02/17 00:27:32;;;;;;;15.93;14.93;;;;;;;9.18;100.00;97131.09;2081797;28;20677;-72
2022/02/17 00:28:34;;;;;;;16.33;15.10;;;;;;;9.13;100.00;97130.56;2081979;28;20195;-72
2022/02/17 00:29:42;;;;;;;15.48;14.48;;;;;;;9.14;100.00;97106.28;2081981;28;20213;-72
2022/02/17 00:30:48;;;;;;;15.40;14.40;;;;;;;9.11;100.00;97111.47;2081743;28;20202;-71
2022/02/17 00:31:49;;;;;;;15.13;14.23;;;;;;;9.04;100.00;97104.84;2082484;28;20217;-71
2022/02/17 00:32:51;;;;;;;15.00;14.10;;;;;;;9.04;100.00;97088.09;2089916;28;20199;-72
2022/02/17 00:33:54;;;;;;;14.90;14.00;;;;;;;9.09;100.00;97105.72;2081871;28;20511;-72
2022/02/17 00:35:00;;;;;;;14.82;13.93;;;;;;;9.09;100.00;97097.72;2081963;28;20670;-72
2022/02/17 00:36:01;;;;;;;15.20;14.30;;;;;;;9.11;100.00;97114.13;2081152;28;20196;-71
2022/02/17 00:37:04;;;;;;;15.50;14.60;;;;;;;9.13;100.00;97111.94;2082655;28;20226;-71
2022/02/17 00:38:06;;;;;;;15.30;14.40;;;;;;;9.11;100.00;97093.63;2081281;28;20707;-71
2022/02/17 00:39:11;;;;;;;14.65;13.85;;;;;;;9.01;100.00;97086.09;2081678;28;20199;-71
2022/02/17 00:40:13;;;;;;;15.48;14.57;;;;;;;9.00;100.00;97082.66;2073686;28;20551;-72
2022/02/17 00:41:18;;;;;;;16.30;15.20;;;;;;;9.13;100.00;97087.97;2081852;28;20184;-72
2022/02/17 00:42:22;;;;;;;15.93;14.93;;;;;;;9.13;100.00;97090.66;2082306;28;20283;-71
2022/02/17 00:43:25;;;;;;;15.80;14.80;;;;;;;9.00;100.00;97077.34;2082101;28;20692;-72
2022/02/17 00:44:28;;;;;;;15.90;14.90;;;;;;;8.99;100.00;97091.75;2081660;28;20191;-72
2022/02/17 00:45:30;;;;;;;15.90;14.90;;;;;;;8.88;100.00;97095.97;2082350;28;20241;-72
2022/02/17 00:46:33;;;;;;;15.10;14.30;;;;;;;8.85;100.00;97106.47;2082452;28;20676;-72
2022/02/17 00:47:39;;;;;;;15.30;14.30;;;;;;;8.90;100.00;97111.59;2081967;28;20658;-71
2022/02/17 00:48:43;;;;;;;15.32;14.43;;;;;;;8.88;100.00;97111.94;2073942;28;20322;-71
2022/02/17 00:49:49;;;;;;;16.00;15.00;;;;;;;8.86;100.00;97113.34;2074178;28;20694;-72
2022/02/17 00:50:51;;;;;;;15.90;15.00;;;;;;;8.83;100.00;97104.16;2081593;28;20203;-71
2022/02/17 00:51:59;;;;;;;14.80;13.90;;;;;;;8.86;100.00;97108.03;2081268;28;20217;-71
2022/02/17 00:53:00;;;;;;;15.15;14.25;;;;;;;8.85;100.00;97109.91;2081654;28;20200;-71
2022/02/17 00:54:02;;;;;;;15.13;14.23;;;;;;;8.85;100.00;97101.94;2082279;28;20650;-71
2022/02/17 00:55:11;;;;;;;15.38;14.35;;;;;;;8.83;100.00;97098.06;2082452;28;20271;-72
2022/02/17 00:56:15;;;;;;;15.52;14.63;;;;;;;8.91;100.00;97094.53;2081794;28;20684;-71
2022/02/17 00:57:20;;;;;;;16.13;15.23;;;;;;;8.85;100.00;97090.53;2082609;28;20566;-73
2022/02/17 00:58:23;;;;;;;15.82;14.88;;;;;;;8.86;100.00;97098.19;2081922;28;20230;-71
2022/02/17 00:59:28;;;;;;;15.80;14.90;;;;;;;8.83;100.00;97088.19;2073588;28;20600;-72
2022/02/17 01:00:30;;;;;;;15.48;14.57;;;;;;;8.86;100.00;97082.25;2073633;28;20215;-71
2022/02/17 01:01:43;;;;;;;15.95;14.95;;;;;;;8.93;100.00;97081.66;2082900;28;20254;-72
2022/02/17 01:02:46;;;;;;;15.77;14.82;;;;;;;8.96;100.00;97071.16;2081660;28;20196;-72
2022/02/17 01:03:49;;;;;;;15.20;14.40;;;;;;;8.99;100.00;97065.16;2081709;28;20203;-72
2022/02/17 01:04:51;;;;;;;15.10;14.18;;;;;;;9.01;100.00;97094.84;2081723;28;20204;-71
2022/02/17 01:05:55;;;;;;;15.45;14.55;;;;;;;9.00;100.00;97077.34;2081591;28;20198;-71
2022/02/17 01:07:01;;;;;;;15.70;14.77;;;;;;;9.04;100.00;97096.84;2081176;28;20215;-71
2022/02/17 01:08:04;;;;;;;15.52;14.63;;;;;;;9.10;100.00;97096.63;2073742;28;20227;-71
2022/02/17 01:09:07;;;;;;;15.82;14.88;;;;;;;9.10;100.00;97099.28;2073441;28;20263;-71
2022/02/17 01:10:13;;;;;;;15.90;15.00;;;;;;;9.05;100.00;97087.75;2073900;28;20200;-71
2022/02/17 01:11:16;;;;;;;16.50;15.50;;;;;;;9.18;100.00;97143.63;2074060;28;20200;-71
2022/02/17 01:12:19;;;;;;;15.98;15.07;;;;;;;9.24;100.00;97099.72;2073729;28;20204;-71
2022/02/17 01:13:23;;;;;;;15.45;14.55;;;;;;;9.20;100.00;97086.28;2073473;28;20279;-71
2022/02/17 01:14:25;;;;;;;14.70;13.90;;;;;;;9.22;100.00;97096.63;2081787;28;20192;-71
2022/02/17 01:15:28;;;;;;;14.57;13.77;;;;;;;9.30;100.00;97085.06;2081777;28;20203;-71
2022/02/17 01:16:32;;;;;;;14.80;14.00;;;;;;;9.24;100.00;97086.41;2073533;28;20621;-71
2022/02/17 01:17:44;;;;;;;14.68;13.88;;;;;;;9.24;100.00;97087.19;2074910;28;20238;-72
2022/02/17 01:18:48;;;;;;;14.70;13.90;;;;;;;9.28;100.00;97097.91;2074142;28;20627;-73
2022/02/17 01:19:55;;;;;;;14.80;14.00;;;;;;;9.23;100.00;97098.94;2082467;28;20195;-71
2022/02/17 01:20:58;;;;;;;14.80;13.98;;;;;;;9.38;100.00;97094.03;2081311;28;20561;-72
2022/02/17 01:22:01;;;;;;;14.98;14.18;;;;;;;9.42;100.00;97110.88;2073319;28;20637;-72
2022/02/17 01:23:05;;;;;;;15.85;14.95;;;;;;;9.29;100.00;97096.81;2073707;28;20204;-71
2022/02/17 01:24:08;;;;;;;15.20;14.30;;;;;;;9.28;100.00;97087.28;2081829;28;20196;-72
2022/02/17 01:25:13;;;;;;;15.60;14.63;;;;;;;9.21;100.00;97095.84;2081379;28;20207;-72
2022/02/17 01:26:20;;;;;;;15.77;14.88;;;;;;;9.22;100.00;97109.91;2073966;28;20647;-72
2022/02/17 01:27:38;;;;;;;15.43;14.52;;;;;;;9.24;100.00;97073.88;2075875;28;20287;-72
2022/02/17 01:28:41;;;;;;;14.90;14.10;;;;;;;9.17;100.00;97062.25;2073642;28;20200;-72
2022/02/17 01:29:44;;;;;;;14.98;14.07;;;;;;;9.22;100.00;97046.84;2073520;28;20200;-71
2022/02/17 01:30:47;;;;;;;14.27;13.40;;;;;;;9.24;100.00;97059.81;2073834;28;20204;-71
2022/02/17 01:31:55;;;;;;;15.00;13.90;;;;;;;9.13;100.00;97058.72;2081753;28;20601;-71
2022/02/17 01:32:58;;;;;;;15.55;14.65;;;;;;;9.19;100.00;97058.13;2081335;28;20295;-71
2022/02/17 01:34:03;;;;;;;15.43;14.60;;;;;;;9.17;100.00;97027.66;2073547;28;20251;-72
2022/02/17 01:35:06;;;;;;;15.70;14.82;;;;;;;9.11;100.00;97029.00;2073810;28;20231;-72
2022/02/17 01:36:08;;;;;;;15.43;14.45;;;;;;;9.05;100.00;97042.53;2072783;28;20286;-72
2022/02/17 01:37:12;;;;;;;15.13;14.02;;;;;;;8.97;100.00;97021.38;2081732;28;20223;-72
2022/02/17 01:38:14;;;;;;;15.60;14.50;;;;;;;9.01;100.00;97015.06;2081403;28;20841;-72
2022/02/17 01:39:18;;;;;;;15.52;14.50;;;;;;;9.00;100.00;97023.38;2073324;28;20204;-72
2022/02/17 01:40:21;;;;;;;15.50;14.60;;;;;;;9.10;100.00;97024.78;2073816;28;20210;-72
2022/02/17 01:41:24;;;;;;;15.93;15.02;;;;;;;9.12;100.00;97009.25;2081410;28;20282;-71
2022/02/17 01:42:30;;;;;;;15.90;15.00;;;;;;;9.15;100.00;97020.03;2081411;28;20279;-72
2022/02/17 01:43:34;;;;;;;15.98;14.70;;;;;;;9.13;100.00;97008.19;2073520;28;20192;-72
2022/02/17 01:44:35;;;;;;;15.32;14.43;;;;;;;9.10;100.00;97006.16;2081253;28;20207;-71
2022/02/17 01:45:41;;;;;;;15.82;14.82;;;;;;;9.10;100.00;97000.84;2073938;28;20278;-71
2022/02/17 01:46:44;;;;;;;15.65;14.75;;;;;;;9.16;100.00;97000.28;2081389;28;20191;-71
2022/02/17 01:47:47;;;;;;;16.20;15.30;;;;;;;9.12;100.00;96983.47;2081357;28;20230;-71
2022/02/17 01:48:55;;;;;;;15.10;14.23;;;;;;;9.13;100.00;96977.03;2073938;28;20550;-71
2022/02/17 01:49:59;;;;;;;15.60;14.70;;;;;;;9.22;100.00;96998.19;2074554;28;20196;-71
2022/02/17 01:51:02;;;;;;;15.70;14.70;;;;;;;9.18;100.00;96991.97;2074756;28;20695;-71
2022/02/17 01:52:07;;;;;;;15.23;14.32;;;;;;;9.26;100.00;96983.06;2083132;28;20182;-71
2022/02/17 01:53:11;;;;;;;14.77;13.88;;;;;;;9.36;100.00;96990.56;2083072;28;20241;-72
2022/02/17 01:54:15;;;;;;;15.40;14.50;;;;;;;9.30;100.00;96984.72;2082793;28;20203;-71
2022/02/17 01:55:20;;;;;;;15.68;14.77;;;;;;;9.35;100.00;96962.41;2075293;28;20265;-71
2022/02/17 01:56:24;;;;;;;15.90;15.00;;;;;;;9.34;100.00;96956.31;2074849;28;20687;-71
2022/02/17 01:57:28;;;;;;;16.00;15.10;;;;;;;9.33;100.00;96938.81;2075093;28;20626;-71
2022/02/17 01:58:36;;;;;;;15.43;14.52;;;;;;;9.30;100.00;96941.38;2076025;28;20258;-71
2022/02/17 01:59:47;;;;;;;15.25;14.25;;;;;;;9.37;100.00;96932.78;2076265;28;20207;-71
2022/02/17 02:00:59;;;;;;;15.40;14.60;;;;;;;9.47;100.00;96941.09;2075749;28;20196;-72
2022/02/17 02:02:04;;;;;;;15.43;14.52;;;;;;;9.44;100.00;96949.72;2083048;28;20580;-71
2022/02/17 02:03:08;;;;;;;15.40;14.52;;;;;;;9.51;100.00;96954.47;2075472;28;20548;-72
2022/02/17 02:04:35;;;;;;;14.80;14.00;;;;;;;9.50;100.00;96975.00;2077969;28;20733;-72
2022/02/17 02:05:40;;;;;;;14.48;13.68;;;;;;;9.59;100.00;96972.19;2075475;28;20705;-71
2022/02/17 02:06:43;;;;;;;14.73;13.95;;;;;;;9.59;100.00;96969.53;2074771;28;20258;-72
2022/02/17 02:07:47;;;;;;;14.23;13.43;;;;;;;9.60;100.00;96955.88;2074925;28;20208;-72
2022/02/17 02:09:01;;;;;;;15.40;14.50;;;;;;;9.57;100.00;96953.13;2076608;28;20288;-71
2022/02/17 02:10:13;;;;;;;15.48;14.57;;;;;;;9.50;100.00;96959.03;2082805;28;20199;-71
2022/02/17 02:11:16;;;;;;;15.57;14.68;;;;;;;9.41;100.00;96953.09;2083065;28;20776;-71
2022/02/17 02:12:28;;;;;;;16.40;15.50;;;;;;;9.47;100.00;96950.94;2082821;28;20253;-70
2022/02/17 02:13:32;;;;;;;15.13;14.18;;;;;;;9.48;100.00;96941.84;2082810;28;20199;-71
2022/02/17 02:14:36;;;;;;;15.27;14.48;;;;;;;9.49;100.00;96930.88;2074981;28;20627;-71
2022/02/17 02:15:49;;;;;;;15.95;14.77;;;;;;;9.39;100.00;96944.66;2082936;28;20200;-70
2022/02/17 02:16:53;;;;;;;15.43;14.52;;;;;;;9.45;100.00;96942.50;2075367;28;20290;-71
2022/02/17 02:17:56;;;;;;;15.70;14.70;;;;;;;9.41;100.00;96934.44;2074927;28;20262;-71
2022/02/17 02:18:59;;;;;;;15.70;14.60;;;;;;;9.38;100.00;96931.69;2083003;28;20192;-71
2022/02/17 02:20:03;;;;;;;15.90;14.75;;;;;;;9.36;100.00;96937.34;2082843;28;20446;-71
2022/02/17 02:21:09;;;;;;;16.60;15.32;;;;;;;9.47;100.00;96925.13;2074225;28;20713;-71
2022/02/17 02:22:14;;;;;;;16.42;15.43;;;;;;;9.48;100.00;96920.56;2075384;28;20307;-70
2022/02/17 02:23:19;;;;;;;16.85;15.68;;;;;;;9.52;100.00;96932.84;2074883;28;20192;-71
2022/02/17 02:24:34;;;;;;;16.33;15.32;;;;;;;9.47;100.00;96909.16;2075683;28;20277;-71
2022/02/17 02:25:39;;;;;;;16.17;15.18;;;;;;;9.48;100.00;96913.34;2075874;28;20192;-70
2022/02/17 02:26:41;;;;;;;15.35;14.45;;;;;;;9.58;100.00;96920.06;2082852;28;20724;-71
2022/02/17 02:27:47;;;;;;;16.33;15.33;;;;;;;9.56;100.00;96901.78;2083043;28;20618;-71
2022/02/17 02:28:51;;;;;;;16.50;15.50;;;;;;;9.54;100.00;96908.53;2075331;28;20451;-72
2022/02/17 02:30:00;;;;;;;16.02;15.13;;;;;;;9.61;100.00;96906.81;2075203;28;20693;-71
2022/02/17 02:31:07;;;;;;;16.20;15.20;;;;;;;9.62;100.00;96896.94;2075903;28;20250;-72
2022/02/17 02:32:09;;;;;;;15.77;14.82;;;;;;;9.60;100.00;96907.16;2082639;28;20199;-72
2022/02/17 02:33:12;;;;;;;16.00;14.95;;;;;;;9.60;100.00;96907.94;2082877;28;20629;-72
2022/02/17 02:34:14;;;;;;;15.85;14.85;;;;;;;9.69;100.00;96915.78;2082482;28;20321;-72
2022/02/17 02:35:16;;;;;;;16.00;15.00;;;;;;;9.72;100.00;96906.31;2082749;28;20563;-72
2022/02/17 02:36:21;;;;;;;15.90;14.90;;;;;;;9.74;100.00;96904.88;2082142;28;20227;-71
2022/02/17 02:37:24;;;;;;;15.90;14.90;;;;;;;9.81;100.00;96894.38;2082520;28;20675;-72
2022/02/17 02:38:25;;;;;;;16.00;15.00;;;;;;;9.74;100.00;96910.19;2074877;28;20201;-71
2022/02/17 02:39:27;;;;;;;16.27;15.27;;;;;;;9.74;100.00;96888.13;2074505;28;20231;-71
2022/02/17 02:40:32;;;;;;;15.88;14.88;;;;;;;9.77;100.00;96884.78;2074766;28;20208;-71
2022/02/17 02:41:37;;;;;;;15.43;14.43;;;;;;;9.76;100.00;96880.56;2082745;28;20658;-72
2022/02/17 02:42:38;;;;;;;16.05;15.13;;;;;;;9.70;100.00;96880.03;2082627;28;20203;-72
2022/02/17 02:43:47;;;;;;;17.02;16.00;;;;;;;9.63;100.00;96869.97;2075027;28;20219;-72
2022/02/17 02:44:51;;;;;;;16.05;15.10;;;;;;;9.62;100.00;96862.34;2075516;28;20204;-72
2022/02/17 02:45:55;;;;;;;16.75;15.65;;;;;;;9.62;100.00;96865.00;2074525;28;20204;-71
2022/02/17 02:46:56;;;;;;;15.68;14.68;;;;;;;9.60;100.00;96837.97;2082646;28;20246;-71
2022/02/17 02:48:04;;;;;;;15.73;14.82;;;;;;;9.57;100.00;96844.75;2083444;28;20194;-71
2022/02/17 02:49:06;;;;;;;15.30;14.40;;;;;;;9.47;100.00;96823.97;2083231;28;20210;-70
2022/02/17 02:50:09;;;;;;;15.02;14.23;;;;;;;9.38;100.00;96833.22;2083449;28;20608;-70
2022/02/17 02:51:13;;;;;;;15.23;14.43;;;;;;;9.38;100.00;96820.69;2082232;28;20246;-71
2022/02/17 02:52:17;;;;;;;16.10;15.20;;;;;;;9.51;100.00;96822.16;2074855;28;20205;-71
2022/02/17 02:53:22;;;;;;;16.40;15.40;;;;;;;9.54;100.00;96845.41;2082880;28;20255;-71
2022/02/17 02:54:23;;;;;;;15.73;14.82;;;;;;;9.60;100.00;96827.31;2082526;28;20286;-72
2022/02/17 02:55:27;;;;;;;15.75;14.77;;;;;;;9.57;100.00;96833.31;2082817;28;20188;-72
2022/02/17 02:56:31;;;;;;;16.10;15.10;;;;;;;9.60;100.00;96838.72;2082414;28;20203;-71
2022/02/17 02:57:33;;;;;;;15.95;15.05;;;;;;;9.61;100.00;96831.50;2074534;28;20220;-71
2022/02/17 02:58:36;;;;;;;15.95;15.05;;;;;;;9.66;100.00;96825.16;2074499;28;20547;-72
2022/02/17 02:59:42;;;;;;;17.00;16.00;;;;;;;9.66;100.00;96833.94;2074757;28;20279;-72
2022/02/17 03:00:48;;;;;;;16.73;15.65;;;;;;;9.70;100.00;96828.69;2074860;28;20204;-72
2022/02/17 03:01:54;;;;;;;16.00;15.00;;;;;;;9.70;100.00;96853.41;2074940;28;20200;-71
2022/02/17 03:02:56;;;;;;;16.35;15.27;;;;;;;9.72;100.00;96831.75;2074740;28;20200;-71
2022/02/17 03:03:59;;;;;;;17.15;16.05;;;;;;;9.61;100.00;96824.28;2074433;28;20197;-71
2022/02/17 03:05:03;;;;;;;19.52;18.13;;;;;;;9.49;100.00;96850.25;2074905;28;20204;-72
2022/02/17 03:06:06;;;;;;;21.83;20.10;;;;;;;9.32;100.00;96824.72;2081711;28;20200;-72
2022/02/17 03:07:17;;;;;;;23.10;21.40;;;;;;;9.14;100.00;96824.28;2081997;28;20225;-71
2022/02/17 03:08:21;;;;;;;22.38;20.77;;;;;;;9.09;100.00;96845.03;2082792;28;20202;-72
2022/02/17 03:09:23;;;;;;;23.00;21.45;;;;;;;8.93;100.00;96813.06;2082485;28;20195;-71
2022/02/17 03:10:28;;;;;;;24.13;22.42;;;;;;;8.93;100.00;96810.41;2082260;28;20210;-72
2022/02/17 03:11:32;;;;;;;23.58;21.83;;;;;;;8.84;100.00;96817.75;2075905;28;20208;-72
2022/02/17 03:12:37;;;;;;;23.27;21.58;;;;;;;8.81;100.00;96815.78;2074401;28;20598;-71
2022/02/17 03:13:39;;;;;;;23.73;21.98;;;;;;;8.69;100.00;96820.06;2082624;28;20188;-71
2022/02/17 03:14:45;;;;;;;24.92;23.13;;;;;;;8.65;100.00;96808.53;2082575;28;20209;-71
2022/02/17 03:16:07;;;;;;;23.58;21.77;;;;;;;8.55;100.00;96813.56;2082423;28;20199;-72
2022/02/17 03:17:11;;;;;;;21.20;20.00;;;;;;;8.47;100.00;96810.69;2082254;28;20669;-72
2022/02/17 03:18:16;;;;;;;23.30;21.90;;;;;;;8.45;100.00;96817.47;2082428;28;20195;-72
2022/02/17 03:19:18;;;;;;;24.05;22.25;;;;;;;8.34;100.00;96801.19;2082346;28;20195;-72
2022/02/17 03:20:24;;;;;;;23.65;22.05;;;;;;;8.32;100.00;96824.66;2074531;28;20200;-73
2022/02/17 03:21:26;;;;;;;24.30;22.70;;;;;;;8.32;100.00;96802.63;2081920;28;20219;-72
2022/02/17 03:22:31;;;;;;;24.42;22.73;;;;;;;8.25;100.00;96792.56;2082364;28;20791;-72
2022/02/17 03:23:37;;;;;;;24.05;22.23;;;;;;;8.20;100.00;96779.53;2082444;28;20245;-72
2022/02/17 03:24:46;;;;;;;25.70;24.10;;;;;;;8.15;100.00;96777.09;2082412;28;20188;-72
2022/02/17 03:25:48;;;;;;;25.85;24.05;;;;;;;8.12;100.00;96791.84;2082523;28;20208;-72
2022/02/17 03:26:59;;;;;;;25.17;23.48;;;;;;;8.16;100.00;96783.94;2075436;28;20200;-72
2022/02/17 03:28:01;;;;;;;24.52;23.02;;;;;;;8.09;100.00;96775.81;2082272;28;20196;-72
2022/02/17 03:29:23;;;;;;;25.75;24.15;;;;;;;7.98;100.00;96751.56;2082224;28;20199;-72
2022/02/17 03:30:28;;;;;;;28.35;26.50;;;;;;;7.94;100.00;96783.34;2082193;28;20195;-72
2022/02/17 03:31:31;;;;;;;25.80;24.10;;;;;;;7.90;100.00;96750.59;2082731;28;20207;-72
2022/02/17 03:32:41;;;;;;;27.40;25.58;;;;;;;7.87;100.00;96759.22;2082249;28;20212;-72
2022/02/17 03:33:43;;;;;;;25.33;23.63;;;;;;;7.84;100.00;96762.56;2082463;28;20223;-72
2022/02/17 03:34:47;;;;;;;24.35;22.75;;;;;;;7.89;100.00;96753.59;2082174;28;20223;-72
2022/02/17 03:35:59;;;;;;;27.63;25.52;;;;;;;7.82;100.00;96764.78;2075293;28;20246;-72
2022/02/17 03:37:01;;;;;;;26.63;24.92;;;;;;;7.85;100.00;96760.69;2073993;28;20193;-72
2022/02/17 03:38:08;;;;;;;26.00;24.10;;;;;;;7.94;100.00;96745.41;2082258;28;20201;-72
2022/02/17 03:39:11;;;;;;;27.25;25.25;;;;;;;7.88;100.00;96726.25;2074754;28;20266;-72
2022/02/17 03:40:34;;;;;;;25.25;23.55;;;;;;;7.96;100.00;96724.59;2084856;28;20206;-72
2022/02/17 03:41:38;;;;;;;26.00;24.20;;;;;;;8.06;100.00;96728.66;2082142;28;20196;-72
2022/02/17 03:42:48;;;;;;;25.50;23.80;;;;;;;8.05;100.00;96722.56;2075364;28;20582;-71
2022/02/17 03:43:52;;;;;;;27.38;25.48;;;;;;;8.20;100.00;96726.41;2074172;28;20211;-72
2022/02/17 03:45:02;;;;;;;25.80;24.10;;;;;;;8.12;100.00;96709.50;2075296;28;20713;-71
2022/02/17 03:46:06;;;;;;;25.88;23.98;;;;;;;8.25;100.00;96688.97;2074564;28;20204;-71
2022/02/17 03:47:09;;;;;;;24.80;23.00;;;;;;;8.26;100.00;96693.19;2073995;28;20289;-71
2022/02/17 03:48:36;;;;;;;23.95;22.25;;;;;;;8.29;100.00;96689.06;2082142;28;20662;-71
2022/02/17 03:49:42;;;;;;;24.20;22.60;;;;;;;8.34;100.00;96684.31;2082074;28;20204;-71
2022/02/17 03:50:46;;;;;;;23.70;22.10;;;;;;;8.40;100.00;96675.00;2081932;28;20759;-71
2022/02/17 03:51:55;;;;;;;23.92;22.15;;;;;;;8.38;100.00;96669.25;2074539;28;20220;-71
2022/02/17 03:52:58;;;;;;;23.35;21.85;;;;;;;8.38;100.00;96665.81;2082036;28;20310;-71
2022/02/17 03:54:09;;;;;;;24.27;22.77;;;;;;;8.43;100.00;96665.59;2074845;28;20251;-71
2022/02/17 03:55:24;;;;;;;24.88;23.27;;;;;;;8.48;100.00;96654.69;2084466;28;20203;-72
2022/02/17 03:56:26;;;;;;;23.10;21.60;;;;;;;8.52;100.00;96657.47;2082359;28;20275;-71
2022/02/17 03:57:58;;;;;;;23.60;22.10;;;;;;;8.57;100.00;96681.88;2078030;28;20220;-71
2022/02/17 03:59:02;;;;;;;23.42;21.75;;;;;;;8.66;100.00;96668.44;2082500;28;20195;-71
2022/02/17 04:00:11;;;;;;;20.55;19.25;;;;;;;8.61;100.00;96668.69;2081983;28;20223;-71
2022/02/17 04:01:25;;;;;;;22.05;20.55;;;;;;;8.62;100.00;96663.03;2076069;28;20204;-71
2022/02/17 04:02:28;;;;;;;20.73;19.23;;;;;;;8.69;100.00;96659.78;2074148;28;20208;-71
2022/02/17 04:03:30;;;;;;;20.60;19.30;;;;;;;8.77;100.00;96642.88;2074129;28;20215;-71
2022/02/17 04:04:38;;;;;;;21.13;19.83;;;;;;;8.76;100.00;96651.97;2074251;28;20275;-71
2022/02/17 04:05:41;;;;;;;21.08;19.77;;;;;;;8.85;100.00;96649.13;2074159;28;20283;-71
2022/02/17 04:06:46;;;;;;;21.52;20.13;;;;;;;8.92;100.00;96628.81;2081549;28;20275;-71
2022/02/17 04:07:49;;;;;;;21.90;20.48;;;;;;;9.00;100.00;96619.09;2074301;28;20243;-71
2022/02/17 04:08:59;;;;;;;22.27;20.77;;;;;;;8.98;100.00;96627.44;2075047;28;20208;-71
2022/02/17 04:10:05;;;;;;;20.65;19.25;;;;;;;9.00;100.00;96635.06;2082247;28;20716;-71
2022/02/17 04:11:07;;;;;;;20.95;19.65;;;;;;;9.10;100.00;96629.22;2082145;28;20223;-71
2022/02/17 04:12:16;;;;;;;20.58;19.38;;;;;;;9.10;100.00;96623.13;2089672;28;20257;-71
2022/02/17 04:13:18;;;;;;;19.83;18.70;;;;;;;9.08;100.00;96620.81;2081549;28;20290;-71
2022/02/17 04:14:25;;;;;;;19.80;18.60;;;;;;;9.17;100.00;96640.03;2074115;28;20287;-71
2022/02/17 04:15:29;;;;;;;19.58;18.38;;;;;;;9.22;100.00;96620.38;2074357;28;20188;-71
2022/02/17 04:16:33;;;;;;;17.80;16.70;;;;;;;9.28;100.00;96629.63;2073843;28;20230;-71
2022/02/17 04:17:49;;;;;;;17.98;16.77;;;;;;;9.30;100.00;96638.03;2076081;28;20219;-71
2022/02/17 04:18:57;;;;;;;18.50;17.48;;;;;;;9.25;100.00;96614.34;2082095;28;20620;-71
2022/02/17 04:20:15;;;;;;;17.70;16.60;;;;;;;9.28;100.00;96616.31;2081851;28;20274;-71
2022/02/17 04:21:38;;;;;;;17.52;16.50;;;;;;;9.33;100.00;96651.41;2081946;28;20223;-71
2022/02/17 04:22:46;;;;;;;17.45;16.45;;;;;;;9.44;100.00;96661.53;2081907;28;20648;-71
2022/02/17 04:23:54;;;;;;;16.42;15.52;;;;;;;9.39;100.00;96620.00;2082244;28;20666;-71
2022/02/17 04:25:01;;;;;;;17.38;16.27;;;;;;;9.55;100.00;96617.25;2081813;28;20286;-71
2022/02/17 04:26:05;;;;;;;17.30;16.30;;;;;;;9.52;100.00;96624.06;2081726;28;20196;-71
2022/02/17 04:27:25;;;;;;;16.27;15.38;;;;;;;9.46;100.00;96619.34;2076271;28;20669;-71
2022/02/17 04:28:39;;;;;;;18.00;16.90;;;;;;;9.55;100.00;96628.69;2075372;28;20246;-71
2022/02/17 04:29:42;;;;;;;17.73;16.73;;;;;;;9.55;100.00;96638.56;2074174;28;20563;-72
2022/02/17 04:30:47;;;;;;;16.90;15.63;;;;;;;9.59;100.00;96634.88;2074078;28;20200;-71
2022/02/17 04:31:52;;;;;;;16.52;15.63;;;;;;;9.63;100.00;96643.69;2073854;28;20200;-71
2022/02/17 04:33:04;;;;;;;16.50;15.55;;;;;;;9.62;100.00;96644.81;2074521;28;20200;-72
2022/02/17 04:34:30;;;;;;;15.50;14.60;;;;;;;9.68;100.00;96647.22;2077975;28;20230;-71
2022/02/17 04:35:46;;;;;;;16.00;15.00;;;;;;;9.73;100.00;96638.94;2075532;28;20180;-73
2022/02/17 04:36:51;;;;;;;15.35;14.30;;;;;;;9.74;100.00;96646.59;2073586;28;20290;-72
2022/02/17 04:37:52;;;;;;;15.00;14.20;;;;;;;9.78;100.00;96633.34;2081714;28;20223;-71
2022/02/17 04:38:55;;;;;;;15.80;14.90;;;;;;;9.77;100.00;96634.47;2082038;28;20291;-71
2022/02/17 04:40:03;;;;;;;15.10;14.30;;;;;;;9.84;100.00;96639.94;2074302;28;20216;-72
2022/02/17 04:42:33;;;;;;;15.35;14.50;;;;;;;9.85;100.00;96638.81;2081734;28;20242;-71
2022/02/17 04:43:37;;;;;;;14.88;14.05;;;;;;;9.86;100.00;96621.72;2082331;28;20293;-71
2022/02/17 04:44:40;;;;;;;15.88;14.88;;;;;;;9.94;100.00;96602.09;2081654;28;20215;-71
2022/02/17 04:45:41;;;;;;;15.80;14.80;;;;;;;9.97;100.00;96609.34;2081765;28;20669;-71
2022/02/17 04:46:45;;;;;;;16.30;15.20;;;;;;;9.89;100.00;96607.69;2081659;28;20715;-71
2022/02/17 04:47:49;;;;;;;16.52;15.43;;;;;;;9.94;100.00;96615.41;2081802;28;20932;-72
2022/02/17 04:48:50;;;;;;;16.50;15.40;;;;;;;9.94;100.00;96604.75;2073596;28;20299;-71
2022/02/17 04:49:56;;;;;;;15.97;15.00;;;;;;;9.99;100.00;96619.66;2073615;28;20205;-71
2022/02/17 04:50:58;;;;;;;15.27;14.38;;;;;;;10.06;100.00;96601.91;2081487;28;20445;-71
2022/02/17 04:52:00;;;;;;;14.32;13.52;;;;;;;10.08;100.00;96620.25;2089986;28;20652;-71
2022/02/17 04:53:05;;;;;;;14.38;13.57;;;;;;;10.16;100.00;96595.25;2081788;28;20226;-72
2022/02/17 04:54:16;;;;;;;14.80;14.00;;;;;;;10.07;100.00;96611.44;2074783;28;20682;-71
2022/02/17 04:55:22;;;;;;;14.80;13.95;;;;;;;10.04;100.00;96614.06;2081760;28;20702;-72
2022/02/17 04:56:32;;;;;;;14.80;14.00;;;;;;;9.98;100.00;96607.47;2074594;28;20702;-71
2022/02/17 04:57:34;;;;;;;15.13;14.13;;;;;;;10.01;100.00;96596.88;2073848;28;20219;-71
2022/02/17 04:58:39;;;;;;;14.93;14.02;;;;;;;10.07;100.00;96600.78;2081455;28;20195;-72
2022/02/17 04:59:42;;;;;;;14.50;13.70;;;;;;;10.13;100.00;96607.38;2074068;28;20287;-72
2022/02/17 05:00:45;;;;;;;15.50;14.70;;;;;;;10.14;100.00;96600.16;2073781;28;20682;-72
2022/02/17 05:02:09;;;;;;;14.82;13.93;;;;;;;10.08;100.00;96602.34;2082111;28;20666;-71
2022/02/17 05:03:36;;;;;;;15.10;14.30;;;;;;;10.18;100.00;96593.78;2082405;28;20179;-72